Time;durP1;ratioP1;P1;durP2;ratioP2;P2;SDS_P1;SDS_P2;PMS_P1;PMS_P2;Temp;Humidity;BMP_temperature;BMP_pressure;BME280_temperature;BME280_humidity;BME280_pressure;Samples;Min_cycle;Max_cycle;Signal;HPM_P1;HPM_P2
2022/12/29 00:01:44;;;;;;;4.47;2.43;;;;;;;9.61;100.00;99368.25;4987456;28;20222;-61
2022/12/29 00:04:13;;;;;;;4.73;2.27;;;;;;;9.63;100.00;99371.53;5007142;28;20690;-61
2022/12/29 00:06:38;;;;;;;3.87;2.40;;;;;;;9.68;100.00;99371.25;5025736;28;20201;-60
2022/12/29 00:09:03;;;;;;;2.20;1.90;;;;;;;9.75;100.00;99363.97;5010395;28;20269;-60
2022/12/29 00:11:29;;;;;;;3.33;2.27;;;;;;;9.71;100.00;99360.75;5011729;28;20244;-60
2022/12/29 00:16:42;;;;;;;2.50;2.30;;;;;;;9.66;100.00;99368.78;5011999;28;20690;-60
2022/12/29 00:35:07;;;;;;;2.80;1.90;;;;;;;9.69;100.00;99360.06;5007397;28;20195;-60
2022/12/29 00:36:02;;;;;;;3.23;2.20;;;;;;;9.78;100.00;99372.31;5012145;28;20245;-61
2022/12/29 00:44:06;;;;;;;2.53;1.90;;;;;;;9.74;100.00;99364.91;5018867;28;20241;-62
2022/12/29 00:46:32;;;;;;;3.50;2.30;;;;;;;9.68;100.00;99361.78;5013400;28;20186;-60
2022/12/29 00:51:42;;;;;;;2.67;2.20;;;;;;;9.66;100.00;99363.66;5018241;28;20726;-61
2022/12/29 00:54:08;;;;;;;2.57;2.10;;;;;;;9.61;100.00;99362.28;5017834;28;20182;-60
2022/12/29 00:56:33;;;;;;;3.60;2.23;;;;;;;9.71;100.00;99371.03;5011514;28;20187;-59
2022/12/29 00:59:07;;;;;;;4.87;2.37;;;;;;;9.61;100.00;99360.53;5029203;28;20198;-60
2022/12/29 01:01:33;;;;;;;3.17;2.30;;;;;;;9.65;100.00;99356.84;4985701;28;20284;-60
2022/12/29 01:03:58;;;;;;;2.33;2.13;;;;;;;9.68;100.00;99361.78;5008887;28;20186;-60
2022/12/29 01:06:24;;;;;;;2.87;2.20;;;;;;;9.64;100.00;99359.53;5014788;28;20906;-60
2022/12/29 01:10:09;;;;;;;4.87;2.33;;;;;;;9.58;100.00;99359.91;5015320;28;20259;-60
2022/12/29 01:11:35;;;;;;;5.60;2.30;;;;;;;9.64;100.00;99357.78;5016304;28;20229;-60
2022/12/29 01:14:01;;;;;;;3.13;2.43;;;;;;;9.62;100.00;99348.50;5018130;28;20191;-59
2022/12/29 01:16:26;;;;;;;4.27;2.20;;;;;;;9.50;100.00;99347.53;5014513;28;20170;-59
2022/12/29 01:18:51;;;;;;;2.03;1.73;;;;;;;9.52;100.00;99354.22;5014926;28;20720;-60
2022/12/29 01:21:17;;;;;;;2.00;1.80;;;;;;;9.52;100.00;99353.41;5005980;28;20239;-60
2022/12/29 01:23:42;;;;;;;2.93;1.77;;;;;;;9.50;100.00;99350.09;5020775;28;20182;-60
2022/12/29 01:26:12;;;;;;;2.10;1.90;;;;;;;9.55;100.00;99340.38;5013951;28;20551;-60
2022/12/29 01:28:39;;;;;;;3.00;2.10;;;;;;;9.49;100.00;99335.63;5013289;28;20178;-60
2022/12/29 01:31:05;;;;;;;2.20;2.00;;;;;;;9.54;100.00;99351.56;5005943;28;20601;-60
2022/12/29 01:33:30;;;;;;;3.03;2.00;;;;;;;9.42;100.00;99339.50;5021179;28;20175;-59
2022/12/29 01:36:04;;;;;;;4.60;2.00;;;;;;;9.38;100.00;99344.00;5013802;28;20640;-59
2022/12/29 01:38:29;;;;;;;4.50;2.00;;;;;;;9.51;100.00;99347.44;5013138;28;20634;-60
2022/12/29 01:40:55;;;;;;;4.13;1.97;;;;;;;9.44;100.00;99338.47;4999247;28;20261;-61
2022/12/29 01:43:20;;;;;;;2.67;1.97;;;;;;;9.43;100.00;99346.28;5013690;28;20253;-60
2022/12/29 01:45:51;;;;;;;3.40;1.70;;;;;;;9.49;100.00;99345.91;5014339;28;20190;-59
2022/12/29 01:48:18;;;;;;;2.03;1.67;;;;;;;9.52;100.00;99338.81;5012581;28;20187;-61
2022/12/29 01:50:52;;;;;;;2.63;1.90;;;;;;;9.64;100.00;99338.97;5002920;28;20230;-60
2022/12/29 01:53:28;;;;;;;5.10;1.87;;;;;;;9.62;100.00;99343.38;4999509;28;20210;-60
2022/12/29 01:55:58;;;;;;;3.67;2.00;;;;;;;9.57;100.00;99342.84;5012477;28;20265;-60
2022/12/29 01:58:29;;;;;;;1.97;1.73;;;;;;;9.56;100.00;99354.84;5012883;28;20175;-60
2022/12/29 02:00:55;;;;;;;3.27;2.27;;;;;;;9.62;100.00;99351.91;5006004;28;20312;-60
2022/12/29 02:03:22;;;;;;;3.97;1.90;;;;;;;9.51;100.00;99354.31;5002995;28;20298;-60
2022/12/29 02:05:51;;;;;;;3.03;2.00;;;;;;;9.57;100.00;99356.50;5003870;28;20202;-60
2022/12/29 02:08:17;;;;;;;3.17;1.80;;;;;;;9.44;100.00;99351.31;5011724;28;20179;-60
2022/12/29 02:10:44;;;;;;;4.07;1.70;;;;;;;9.52;100.00;99363.66;5008424;28;20233;-60
2022/12/29 02:13:09;;;;;;;2.07;1.57;;;;;;;9.39;100.00;99355.06;5009335;28;20194;-59
2022/12/29 02:15:43;;;;;;;2.60;1.80;;;;;;;9.45;100.00;99347.84;5004427;28;20625;-60
2022/12/29 02:18:21;;;;;;;3.47;1.70;;;;;;;9.42;100.00;99353.13;5011904;28;20653;-60
2022/12/29 02:21:25;;;;;;;4.30;1.37;;;;;;;9.41;100.00;99348.91;5008519;28;20264;-60
2022/12/29 02:24:41;;;;;;;1.73;1.63;;;;;;;9.35;100.00;99331.34;5007579;28;20271;-63
2022/12/29 02:27:34;;;;;;;3.30;1.63;;;;;;;9.27;100.00;99318.16;4971358;28;20200;-61
2022/12/29 02:30:05;;;;;;;6.40;1.53;;;;;;;9.26;100.00;99319.09;4971905;28;20218;-60
2022/12/29 02:32:40;;;;;;;2.00;1.90;;;;;;;9.33;100.00;99315.22;4945157;28;20224;-60
2022/12/29 02:35:25;;;;;;;2.77;1.30;;;;;;;9.30;100.00;99313.69;4955290;28;20689;-60
2022/12/29 02:38:14;;;;;;;3.23;1.70;;;;;;;9.31;100.00;99310.16;4959419;28;20194;-60
2022/12/29 02:40:57;;;;;;;1.43;1.33;;;;;;;9.51;100.00;99295.25;4944501;28;20357;-60
2022/12/29 02:43:38;;;;;;;2.23;1.30;;;;;;;9.53;100.00;99293.44;4955402;28;20717;-60
2022/12/29 02:46:13;;;;;;;1.67;1.50;;;;;;;9.69;100.00;99301.00;4954670;28;20698;-60
2022/12/29 02:48:45;;;;;;;2.07;1.77;;;;;;;9.64;100.00;99298.72;4954678;28;20334;-60
2022/12/29 02:51:23;;;;;;;2.63;1.10;;;;;;;9.60;100.00;99294.69;4935601;29;20751;-60
2022/12/29 02:56:36;;;;;;;1.33;1.23;;;;;;;9.62;100.00;99284.31;4965097;28;20199;-60
2022/12/29 02:59:01;;;;;;;1.90;1.30;;;;;;;9.67;100.00;99278.00;4952310;28;20687;-59
2022/12/29 03:01:36;;;;;;;4.03;1.33;;;;;;;9.63;100.00;99273.94;4934113;28;20270;-60
2022/12/29 03:04:20;;;;;;;2.07;1.60;;;;;;;9.69;100.00;99281.25;5001869;28;20807;-60
2022/12/29 03:07:24;;;;;;;1.40;1.20;;;;;;;9.65;100.00;99276.41;5011455;28;20189;-60
2022/12/29 03:10:06;;;;;;;2.93;1.33;;;;;;;9.67;100.00;99270.28;5007015;28;20316;-60
2022/12/29 03:18:34;;;;;;;4.67;1.70;;;;;;;9.77;100.00;99252.50;5012788;28;20197;-59
2022/12/29 03:21:09;;;;;;;2.00;1.60;;;;;;;9.89;100.00;99245.75;5002952;28;20575;-60
2022/12/29 03:23:37;;;;;;;1.70;1.17;;;;;;;9.85;100.00;99249.47;5008365;28;20206;-60
2022/12/29 03:26:08;;;;;;;3.33;1.73;;;;;;;9.94;100.00;99245.47;5009158;28;20281;-61
2022/12/29 03:28:41;;;;;;;2.07;1.70;;;;;;;9.95;100.00;99254.81;5011548;28;20683;-60
2022/12/29 03:31:08;;;;;;;3.50;1.60;;;;;;;9.88;100.00;99248.44;5008130;28;20218;-60
2022/12/29 03:33:37;;;;;;;1.80;1.60;;;;;;;9.87;100.00;99249.34;5006718;28;20210;-61
2022/12/29 03:36:06;;;;;;;3.50;1.70;;;;;;;10.02;100.00;99245.78;5007494;28;20194;-60
2022/12/29 03:38:43;;;;;;;2.60;1.37;;;;;;;10.00;100.00;99245.88;5006890;28;20210;-61
2022/12/29 03:41:13;;;;;;;2.03;1.73;;;;;;;10.01;100.00;99241.56;5004606;28;20218;-60
2022/12/29 03:43:38;;;;;;;2.27;1.60;;;;;;;10.17;100.00;99249.06;5001381;28;20258;-60
2022/12/29 03:46:04;;;;;;;1.80;1.40;;;;;;;10.18;100.00;99238.72;5011657;28;20273;-60
2022/12/29 03:48:29;;;;;;;2.70;1.50;;;;;;;10.20;100.00;99228.31;5012651;28;20186;-60
2022/12/29 03:50:54;;;;;;;2.53;1.70;;;;;;;10.15;100.00;99220.91;5008919;28;20659;-60
2022/12/29 03:53:20;;;;;;;1.50;1.40;;;;;;;10.17;100.00;99224.22;5020856;28;20175;-60
2022/12/29 03:55:45;;;;;;;5.87;1.90;;;;;;;10.20;100.00;99227.50;5012351;28;20182;-60
2022/12/29 03:58:10;;;;;;;2.33;1.50;;;;;;;10.26;100.00;99217.63;5011692;28;20189;-60
2022/12/29 04:00:35;;;;;;;2.00;1.60;;;;;;;10.31;100.00;99215.56;4995971;28;20230;-60
2022/12/29 04:03:01;;;;;;;1.53;1.43;;;;;;;10.40;100.00;99209.00;5023081;28;20205;-60
2022/12/29 04:05:26;;;;;;;1.70;1.60;;;;;;;10.29;100.00;99214.03;5012445;28;20273;-60
2022/12/29 04:07:51;;;;;;;4.73;1.57;;;;;;;10.24;100.00;99213.53;5011417;28;20201;-61
2022/12/29 04:10:17;;;;;;;4.07;1.90;;;;;;;10.32;100.00;99212.06;5002276;28;20303;-61
2022/12/29 04:12:42;;;;;;;5.70;1.80;;;;;;;10.38;100.00;99222.88;5013630;28;20653;-62
2022/12/29 04:15:09;;;;;;;2.83;1.33;;;;;;;10.33;100.00;99218.88;5006782;28;20174;-60
2022/12/29 04:17:34;;;;;;;3.17;1.50;;;;;;;10.37;100.00;99213.53;5029923;28;20182;-60
2022/12/29 04:22:44;;;;;;;2.23;1.80;;;;;;;10.42;100.00;99214.03;5004959;28;20725;-60
2022/12/29 04:25:09;;;;;;;2.23;1.50;;;;;;;10.37;100.00;99216.94;5016116;28;20186;-60
2022/12/29 04:27:34;;;;;;;1.90;1.73;;;;;;;10.36;100.00;99217.88;5015315;28;20664;-60
2022/12/29 04:30:00;;;;;;;3.47;1.50;;;;;;;10.43;100.00;99216.53;5016207;28;20183;-60
2022/12/29 04:32:25;;;;;;;4.17;1.80;;;;;;;10.52;100.00;99209.09;5021126;28;20296;-60
2022/12/29 04:34:50;;;;;;;3.60;1.67;;;;;;;10.42;100.00;99209.72;5015844;28;20607;-60
2022/12/29 04:37:16;;;;;;;1.40;1.20;;;;;;;10.41;100.00;99215.78;5015074;28;20171;-60
2022/12/29 04:39:41;;;;;;;2.00;1.67;;;;;;;10.39;100.00;99212.50;5015801;28;20257;-60
2022/12/29 04:42:06;;;;;;;2.50;1.40;;;;;;;10.40;100.00;99201.28;5020615;28;20224;-60
2022/12/29 04:44:31;;;;;;;2.47;1.53;;;;;;;10.41;100.00;99208.09;5015524;28;20634;-60
2022/12/29 04:46:57;;;;;;;2.57;1.50;;;;;;;10.31;100.00;99210.41;5014967;28;20241;-60
2022/12/29 04:49:22;;;;;;;3.30;1.70;;;;;;;10.27;100.00;99208.16;5015394;28;20193;-61
2022/12/29 04:51:47;;;;;;;2.73;1.70;;;;;;;10.21;100.00;99209.41;5018405;28;20230;-62
2022/12/29 04:54:12;;;;;;;3.33;1.67;;;;;;;10.14;100.00;99218.44;5009115;28;20185;-60
2022/12/29 04:56:38;;;;;;;4.67;1.80;;;;;;;10.13;100.00;99209.09;5014706;28;20614;-61
2022/12/29 04:59:03;;;;;;;2.03;1.67;;;;;;;10.20;100.00;99212.09;5015088;28;20205;-60
2022/12/29 05:01:28;;;;;;;4.13;1.50;;;;;;;10.07;100.00;99215.47;5023272;28;20248;-60
2022/12/29 05:03:53;;;;;;;1.87;1.57;;;;;;;10.08;100.00;99219.66;5019502;28;20179;-61
2022/12/29 05:06:19;;;;;;;2.80;1.77;;;;;;;10.01;100.00;99219.25;5014538;28;20175;-60
2022/12/29 05:08:44;;;;;;;2.23;1.80;;;;;;;10.01;100.00;99228.72;5015195;28;20630;-61
2022/12/29 05:11:10;;;;;;;3.70;1.50;;;;;;;9.76;100.00;99234.63;5011279;28;20233;-60
2022/12/29 05:13:35;;;;;;;1.30;1.20;;;;;;;9.67;100.00;99236.91;5014247;28;20537;-60
2022/12/29 05:16:00;;;;;;;2.00;1.57;;;;;;;9.68;100.00;99230.81;5029296;28;20209;-60
2022/12/29 05:18:25;;;;;;;3.20;1.40;;;;;;;9.84;100.00;99233.22;5010449;28;20191;-60
2022/12/29 05:20:51;;;;;;;4.10;1.60;;;;;;;9.93;100.00;99230.97;5005795;28;20226;-60
2022/12/29 05:23:16;;;;;;;1.77;1.30;;;;;;;9.96;100.00;99230.75;5023228;28;20265;-60
2022/12/29 05:25:44;;;;;;;3.00;1.80;;;;;;;9.95;100.00;99224.00;5014484;28;20241;-60
2022/12/29 05:28:10;;;;;;;2.83;1.43;;;;;;;9.93;100.00;99218.94;5012594;28;20202;-60
2022/12/29 05:30:35;;;;;;;2.33;1.53;;;;;;;10.07;100.00;99219.78;5008176;28;20331;-60
2022/12/29 05:33:00;;;;;;;3.40;1.80;;;;;;;10.13;100.00;99216.81;5025189;28;20187;-60
2022/12/29 05:35:26;;;;;;;2.30;1.50;;;;;;;9.90;100.00;99219.16;5014714;28;20574;-60
2022/12/29 05:37:51;;;;;;;4.40;1.93;;;;;;;9.83;100.00;99205.88;5013830;28;20194;-60
2022/12/29 05:40:16;;;;;;;3.00;1.70;;;;;;;9.91;100.00;99215.66;5003984;28;20202;-61
2022/12/29 05:42:42;;;;;;;2.70;1.40;;;;;;;9.94;100.00;99212.06;5009729;28;20253;-60
2022/12/29 05:45:08;;;;;;;2.40;1.60;;;;;;;10.00;100.00;99212.47;5009385;28;20324;-61
2022/12/29 05:47:34;;;;;;;2.40;1.73;;;;;;;10.00;100.00;99209.09;5012590;28;20186;-60
2022/12/29 05:49:59;;;;;;;2.00;1.40;;;;;;;10.14;100.00;99211.56;5013635;28;20649;-60
2022/12/29 05:52:25;;;;;;;3.23;1.80;;;;;;;10.23;100.00;99211.88;5016184;28;20261;-60
2022/12/29 05:54:50;;;;;;;1.37;1.20;;;;;;;10.31;100.00;99202.72;5008864;28;20630;-62
2022/12/29 05:57:15;;;;;;;3.23;1.47;;;;;;;10.23;100.00;99202.41;5013438;28;20194;-60
2022/12/29 05:59:40;;;;;;;4.30;2.20;;;;;;;10.35;100.00;99205.91;5013967;28;20207;-60
2022/12/29 06:02:06;;;;;;;4.80;1.70;;;;;;;10.38;100.00;99210.03;5018935;28;20703;-60
2022/12/29 06:04:31;;;;;;;1.87;1.43;;;;;;;10.18;100.00;99204.47;5013786;28;20231;-61
2022/12/29 06:06:56;;;;;;;2.33;1.30;;;;;;;10.22;100.00;99205.91;5013543;28;20178;-60
2022/12/29 06:09:21;;;;;;;2.43;1.50;;;;;;;10.31;100.00;99204.47;5013917;28;20267;-60
2022/12/29 06:11:47;;;;;;;2.00;1.40;;;;;;;10.40;100.00;99201.28;5016533;28;20244;-60
2022/12/29 06:14:12;;;;;;;1.50;1.40;;;;;;;10.37;100.00;99218.66;5015968;28;20194;-61
2022/12/29 06:16:37;;;;;;;1.70;1.40;;;;;;;10.48;100.00;99211.88;5013948;28;20175;-61
2022/12/29 06:19:03;;;;;;;1.50;1.40;;;;;;;10.42;100.00;99209.72;5012517;28;20209;-61
2022/12/29 06:21:28;;;;;;;2.83;1.50;;;;;;;10.48;100.00;99208.47;5013711;28;20262;-61
2022/12/29 06:23:53;;;;;;;3.63;1.20;;;;;;;10.46;100.00;99210.34;5017590;28;20265;-60
2022/12/29 06:26:19;;;;;;;3.03;1.50;;;;;;;10.39;100.00;99220.22;5012889;28;20254;-60
2022/12/29 06:28:44;;;;;;;4.47;1.20;;;;;;;10.38;100.00;99225.47;5013488;28;20271;-60
2022/12/29 06:31:10;;;;;;;1.70;1.40;;;;;;;10.39;100.00;99214.25;5011195;28;20245;-61
2022/12/29 06:33:36;;;;;;;4.47;1.50;;;;;;;10.33;100.00;99213.72;5019761;28;20182;-60
2022/12/29 06:36:01;;;;;;;2.40;1.80;;;;;;;10.39;100.00;99209.94;5010220;28;20194;-60
2022/12/29 06:38:27;;;;;;;2.17;1.40;;;;;;;10.34;100.00;99215.38;5013519;28;20186;-60
2022/12/29 06:40:52;;;;;;;3.13;1.73;;;;;;;10.52;100.00;99209.94;5007904;28;20230;-60
2022/12/29 06:43:17;;;;;;;6.50;1.70;;;;;;;10.41;100.00;99205.50;5020780;28;20179;-61
2022/12/29 06:45:43;;;;;;;3.93;2.07;;;;;;;10.29;100.00;99201.97;5013154;28;20205;-60
2022/12/29 06:48:08;;;;;;;4.27;1.87;;;;;;;10.23;100.00;99202.41;5013345;28;20182;-60
2022/12/29 06:50:34;;;;;;;4.17;1.87;;;;;;;10.32;100.00;99203.56;5007011;28;20225;-60
2022/12/29 06:52:59;;;;;;;3.70;1.93;;;;;;;10.43;100.00;99200.25;5016766;28;20209;-60
2022/12/29 06:55:24;;;;;;;2.00;1.53;;;;;;;10.36;100.00;99206.72;5024695;28;20673;-60
2022/12/29 06:57:49;;;;;;;6.03;1.80;;;;;;;10.31;100.00;99200.13;5004289;28;20178;-60
2022/12/29 07:00:16;;;;;;;6.53;2.10;;;;;;;10.43;100.00;99195.97;5004085;28;20627;-60
2022/12/29 07:02:42;;;;;;;2.93;1.63;;;;;;;10.33;100.00;99193.16;5011703;28;20202;-62
2022/12/29 07:05:09;;;;;;;2.43;2.20;;;;;;;10.33;100.00;99185.44;5012934;28;20213;-60
2022/12/29 07:07:34;;;;;;;3.10;1.50;;;;;;;10.33;100.00;99198.28;5011097;28;20217;-61
2022/12/29 07:09:59;;;;;;;4.33;2.07;;;;;;;10.32;100.00;99193.28;5012323;28;20226;-60
2022/12/29 07:12:25;;;;;;;3.90;1.83;;;;;;;10.32;100.00;99203.56;5013554;28;20238;-62
2022/12/29 07:14:50;;;;;;;1.80;1.60;;;;;;;10.43;100.00;99195.13;5026421;28;20222;-60
2022/12/29 07:17:15;;;;;;;2.47;2.17;;;;;;;10.37;100.00;99191.22;5009392;28;20556;-61
2022/12/29 07:19:41;;;;;;;5.13;2.10;;;;;;;10.42;100.00;99196.88;5010452;28;20285;-61
2022/12/29 07:22:06;;;;;;;2.03;1.83;;;;;;;10.41;100.00;99199.56;5016186;28;20214;-62
2022/12/29 07:24:31;;;;;;;4.30;1.77;;;;;;;10.53;100.00;99201.28;5026229;28;20210;-60
2022/12/29 07:26:56;;;;;;;3.93;2.13;;;;;;;10.59;100.00;99212.88;5010224;28;20928;-62
2022/12/29 07:29:22;;;;;;;6.10;2.00;;;;;;;10.56;100.00;99208.78;5010800;28;20195;-61
2022/12/29 07:31:47;;;;;;;4.80;2.20;;;;;;;10.53;100.00;99213.31;5014248;28;20280;-61
2022/12/29 07:34:12;;;;;;;4.83;2.43;;;;;;;10.54;100.00;99223.47;5006825;28;20233;-62
2022/12/29 07:36:38;;;;;;;3.13;2.37;;;;;;;10.56;100.00;99226.78;5011282;28;20179;-62
2022/12/29 07:39:03;;;;;;;3.97;2.43;;;;;;;10.57;100.00;99230.19;5011442;28;20187;-61
2022/12/29 07:41:28;;;;;;;4.40;2.20;;;;;;;10.66;100.00;99234.69;5012679;28;20245;-62
2022/12/29 07:43:54;;;;;;;2.90;2.30;;;;;;;10.53;100.00;99227.00;5015999;28;20233;-61
2022/12/29 07:46:19;;;;;;;4.40;2.20;;;;;;;10.53;100.00;99244.16;5009270;28;20167;-61
2022/12/29 07:48:44;;;;;;;3.97;2.20;;;;;;;10.44;100.00;99236.16;5011654;28;20239;-61
2022/12/29 07:51:10;;;;;;;6.80;2.47;;;;;;;10.47;100.00;99248.00;5010472;28;20233;-60
2022/12/29 07:53:35;;;;;;;4.73;2.30;;;;;;;10.43;100.00;99242.22;5011339;28;20268;-61
2022/12/29 07:56:00;;;;;;;3.43;2.50;;;;;;;10.43;100.00;99255.09;5026228;28;20645;-60
2022/12/29 07:58:26;;;;;;;4.13;2.83;;;;;;;10.40;100.00;99247.56;5010310;28;20194;-55
2022/12/29 08:00:55;;;;;;;4.03;2.37;;;;;;;10.42;100.00;99252.59;4990139;28;20299;-56
2022/12/29 08:03:20;;;;;;;6.00;2.60;;;;;;;10.39;100.00;99252.81;5004039;28;20273;-56
2022/12/29 08:05:46;;;;;;;7.70;2.50;;;;;;;10.45;100.00;99252.41;5012203;28;20183;-55
2022/12/29 08:08:11;;;;;;;3.70;2.50;;;;;;;10.59;100.00;99261.75;5007360;28;20207;-61
2022/12/29 08:10:36;;;;;;;3.67;2.50;;;;;;;10.58;100.00;99270.38;4993278;28;20341;-61
2022/12/29 08:13:04;;;;;;;5.53;3.10;;;;;;;10.44;100.00;99274.75;5019733;28;20190;-61
2022/12/29 08:15:29;;;;;;;7.43;2.87;;;;;;;10.57;100.00;99269.56;5005103;28;20248;-60
2022/12/29 08:17:54;;;;;;;5.77;2.97;;;;;;;10.42;100.00;99265.44;5022886;28;20645;-60
2022/12/29 08:20:20;;;;;;;4.23;2.67;;;;;;;10.44;100.00;99271.31;5003225;28;20207;-60
2022/12/29 08:22:45;;;;;;;4.13;2.90;;;;;;;10.56;100.00;99278.22;5017838;28;20203;-61
2022/12/29 08:25:10;;;;;;;2.80;2.30;;;;;;;10.57;100.00;99276.47;5011369;28;20201;-63
2022/12/29 08:27:35;;;;;;;3.77;2.60;;;;;;;10.55;100.00;99279.13;5011711;28;20187;-59
2022/12/29 08:30:01;;;;;;;5.43;2.87;;;;;;;10.70;100.00;99281.59;5011508;28;20182;-59
2022/12/29 08:32:28;;;;;;;3.07;2.20;;;;;;;10.74;100.00;99280.44;5017260;28;20215;-59
2022/12/29 08:34:53;;;;;;;7.10;2.60;;;;;;;10.71;100.00;99270.38;5010472;28;20634;-60
2022/12/29 08:37:18;;;;;;;4.13;2.30;;;;;;;10.79;100.00;99273.25;5025966;28;20194;-60
2022/12/29 08:39:44;;;;;;;7.87;3.27;;;;;;;10.73;100.00;99278.81;5011701;28;20191;-59
2022/12/29 08:42:09;;;;;;;7.60;3.63;;;;;;;10.64;100.00;99291.38;5016248;28;20657;-62
2022/12/29 08:44:34;;;;;;;5.20;2.90;;;;;;;10.63;100.00;99296.59;5009746;28;20195;-60
2022/12/29 08:47:00;;;;;;;4.00;3.30;;;;;;;10.60;100.00;99296.84;5011170;28;20195;-59
2022/12/29 08:49:25;;;;;;;3.90;2.90;;;;;;;10.56;100.00;99300.53;5010417;28;20191;-60
2022/12/29 08:51:50;;;;;;;5.07;3.27;;;;;;;10.69;100.00;99300.53;5004752;28;20455;-64
2022/12/29 08:54:15;;;;;;;3.50;2.83;;;;;;;10.56;100.00;99303.94;5010711;28;20716;-60
2022/12/29 08:56:41;;;;;;;4.87;2.73;;;;;;;10.43;100.00;99300.53;5007962;28;20218;-62
2022/12/29 08:59:06;;;;;;;3.03;2.73;;;;;;;10.45;100.00;99301.25;5028275;28;20199;-60
2022/12/29 09:01:33;;;;;;;5.60;3.43;;;;;;;10.56;100.00;99309.06;5019613;28;20305;-62
2022/12/29 09:03:58;;;;;;;4.80;3.70;;;;;;;10.64;100.00;99317.09;5018615;28;20191;-62
2022/12/29 09:06:24;;;;;;;3.80;2.97;;;;;;;10.45;100.00;99320.06;5014250;28;20183;-60
2022/12/29 09:08:49;;;;;;;3.53;3.23;;;;;;;10.17;100.00;99324.44;5015056;28;20257;-60
2022/12/29 09:11:18;;;;;;;4.60;3.23;;;;;;;10.19;100.00;99329.47;5003038;28;20371;-60
2022/12/29 09:13:45;;;;;;;6.43;2.97;;;;;;;9.99;100.00;99330.78;5014420;28;20693;-61
2022/12/29 09:16:10;;;;;;;4.13;3.20;;;;;;;9.95;100.00;99337.84;5012757;28;20182;-60
2022/12/29 09:18:36;;;;;;;4.80;3.13;;;;;;;9.96;100.00;99336.94;5013525;28;20536;-60
2022/12/29 09:21:04;;;;;;;4.07;2.80;;;;;;;9.91;100.00;99346.69;5007154;28;20300;-59
2022/12/29 09:23:29;;;;;;;5.23;2.90;;;;;;;9.83;100.00;99366.88;5009272;28;20729;-61
2022/12/29 09:25:55;;;;;;;4.87;2.80;;;;;;;9.81;100.00;99358.44;5013007;28;20179;-60
2022/12/29 09:28:20;;;;;;;4.43;3.23;;;;;;;9.74;100.00;99346.94;5014669;28;20221;-59
2022/12/29 09:30:46;;;;;;;6.53;3.30;;;;;;;9.63;100.00;99363.81;5019151;28;20229;-60
2022/12/29 09:33:12;;;;;;;6.70;3.80;;;;;;;9.68;100.00;99366.09;5007614;28;20207;-61
2022/12/29 09:35:40;;;;;;;5.80;3.10;;;;;;;9.59;100.00;99372.66;5012859;28;20181;-61
2022/12/29 09:38:05;;;;;;;3.53;3.17;;;;;;;9.56;100.00;99362.56;5013818;28;20644;-60
2022/12/29 09:40:32;;;;;;;5.27;3.27;;;;;;;9.59;100.00;99367.50;5007614;28;20230;-60
2022/12/29 09:43:01;;;;;;;4.70;3.13;;;;;;;9.61;100.00;99369.97;5010060;28;20187;-60
2022/12/29 09:45:35;;;;;;;4.33;3.00;;;;;;;9.50;100.00;99374.03;5013521;28;20182;-61
2022/12/29 09:48:00;;;;;;;3.10;2.43;;;;;;;9.33;100.00;99369.94;5012426;28;20182;-61
2022/12/29 09:50:30;;;;;;;6.00;2.43;;;;;;;9.13;100.00;99378.84;5005070;28;20546;-61
2022/12/29 09:53:21;;;;;;;5.63;2.03;;;;;;;9.14;100.00;99382.22;5005800;28;20187;-60
2022/12/29 09:55:55;;;;;;;2.77;1.83;;;;;;;9.10;100.00;99371.31;5002714;28;20178;-60
2022/12/29 09:58:44;;;;;;;3.03;1.93;;;;;;;9.07;100.00;99370.66;5012751;28;20265;-60
2022/12/29 10:01:31;;;;;;;1.80;1.20;;;;;;;9.07;100.00;99366.38;5004280;28;20241;-56
2022/12/29 10:03:58;;;;;;;3.10;1.97;;;;;;;9.15;100.00;99364.19;5017285;28;20174;-61
2022/12/29 10:06:27;;;;;;;3.67;2.20;;;;;;;9.17;100.00;99349.50;5012789;28;20175;-61
2022/12/29 10:09:15;;;;;;;3.20;2.00;;;;;;;9.28;100.00;99356.56;5025867;28;20248;-60
2022/12/29 10:11:49;;;;;;;3.03;1.90;;;;;;;9.25;100.00;99356.72;5014369;28;20226;-60
2022/12/29 10:14:55;;;;;;;4.80;1.83;;;;;;;9.32;100.00;99350.31;5008836;28;20262;-60
2022/12/29 10:17:28;;;;;;;2.17;1.40;;;;;;;9.45;100.00;99357.25;5013120;28;20646;-60
2022/12/29 10:20:18;;;;;;;1.67;1.30;;;;;;;9.57;100.00;99363.38;5011192;28;20211;-60
2022/12/29 10:22:51;;;;;;;3.30;1.50;;;;;;;9.63;100.00;99361.25;5001701;28;20226;-60
2022/12/29 10:25:24;;;;;;;2.23;1.67;;;;;;;9.60;100.00;99363.19;5003713;28;20761;-59
2022/12/29 10:27:53;;;;;;;3.07;1.50;;;;;;;9.74;100.00;99359.78;5010243;28;20183;-63
2022/12/29 10:30:19;;;;;;;1.70;1.13;;;;;;;9.72;100.00;99366.75;5000855;28;20191;-60
2022/12/29 10:33:05;;;;;;;1.37;1.27;;;;;;;9.82;100.00;99360.94;5024431;28;20182;-60
2022/12/29 10:35:38;;;;;;;1.17;0.93;;;;;;;9.74;100.00;99357.22;5027850;28;20198;-60
2022/12/29 10:38:19;;;;;;;2.30;0.90;;;;;;;9.90;100.00;99372.44;5012258;28;20206;-60
2022/12/29 10:41:00;;;;;;;1.13;1.00;;;;;;;10.04;100.00;99363.88;5004222;28;20248;-60
2022/12/29 10:43:30;;;;;;;1.77;1.00;;;;;;;10.07;100.00;99358.53;5002550;28;20283;-59
2022/12/29 10:46:04;;;;;;;4.10;1.20;;;;;;;10.16;100.00;99345.91;5008106;28;20199;-60
2022/12/29 10:48:34;;;;;;;3.10;0.80;;;;;;;10.34;100.00;99348.19;5021581;28;20178;-60
2022/12/29 10:51:04;;;;;;;1.77;1.00;;;;;;;10.53;100.00;99354.75;5010396;28;20236;-60
2022/12/29 10:53:52;;;;;;;1.90;1.10;;;;;;;10.71;100.00;99342.41;5028121;28;20662;-64
2022/12/29 10:56:35;;;;;;;1.17;0.80;;;;;;;10.70;100.00;99356.19;4989233;28;683396;-61
2022/12/29 10:59:27;;;;;;;2.73;1.07;;;;;;;10.80;100.00;99358.06;4998960;28;20599;-65
2022/12/29 11:02:04;;;;;;;1.23;0.83;;;;;;;11.20;100.00;99353.66;5014529;28;20230;-61
2022/12/29 11:04:37;;;;;;;2.90;1.10;;;;;;;11.46;100.00;99352.69;5012784;28;20186;-61
2022/12/29 11:07:04;;;;;;;3.97;1.30;;;;;;;11.33;100.00;99367.34;5011071;28;20657;-63
2022/12/29 11:09:32;;;;;;;1.47;0.83;;;;;;;11.41;100.00;99365.06;5007248;28;20194;-60
2022/12/29 11:11:58;;;;;;;1.67;1.07;;;;;;;11.43;100.00;99377.81;5013594;28;20308;-61
2022/12/29 11:14:31;;;;;;;1.37;1.07;;;;;;;11.49;100.00;99371.44;5014718;28;20650;-61
2022/12/29 11:17:03;;;;;;;2.00;1.00;;;;;;;11.71;100.00;99368.16;5009987;28;20274;-61
2022/12/29 11:19:32;;;;;;;5.60;1.00;;;;;;;11.63;100.00;99369.53;5009236;28;20195;-61
2022/12/29 11:22:24;;;;;;;2.53;1.20;;;;;;;11.84;100.00;99365.53;5016074;28;20607;-60
2022/12/29 11:24:52;;;;;;;3.13;1.00;;;;;;;12.07;100.00;99366.50;5010704;28;20187;-60
2022/12/29 11:27:24;;;;;;;3.93;0.80;;;;;;;12.08;100.00;99366.38;5011498;28;20205;-60
2022/12/29 11:29:52;;;;;;;2.40;1.10;;;;;;;12.19;100.00;99363.03;5002990;28;20184;-67
2022/12/29 11:32:26;;;;;;;1.40;0.90;;;;;;;12.17;100.00;99362.31;4996877;28;20254;-60
2022/12/29 11:34:51;;;;;;;1.50;1.10;;;;;;;12.37;100.00;99367.75;5007697;28;20202;-61
2022/12/29 11:37:38;;;;;;;2.80;1.30;;;;;;;12.19;100.00;99364.75;5008511;28;20214;-61
2022/12/29 11:40:14;;;;;;;3.03;0.70;;;;;;;11.93;100.00;99372.59;5002170;28;20212;-62
2022/12/29 11:42:46;;;;;;;1.90;1.17;;;;;;;12.07;100.00;99359.56;5025100;28;20197;-62
2022/12/29 11:45:18;;;;;;;2.53;0.80;;;;;;;12.09;100.00;99362.88;5011079;28;20179;-62
2022/12/29 11:47:48;;;;;;;4.60;1.40;;;;;;;12.00;100.00;99362.72;5009127;28;20191;-63
2022/12/29 11:50:20;;;;;;;2.63;1.13;;;;;;;11.88;100.00;99367.78;4997129;28;20246;-62
2022/12/29 11:52:48;;;;;;;2.57;1.23;;;;;;;11.98;100.00;99364.56;5024604;28;20178;-62
2022/12/29 11:55:21;;;;;;;1.77;0.93;;;;;;;11.86;100.00;99372.22;5008973;28;20184;-62
2022/12/29 11:57:48;;;;;;;2.53;1.20;;;;;;;11.93;100.00;99368.28;5010980;28;20175;-62
2022/12/29 12:00:19;;;;;;;2.37;1.20;;;;;;;11.97;100.00;99355.19;5008094;28;20202;-62
2022/12/29 12:02:51;;;;;;;5.20;1.60;;;;;;;11.96;100.00;99377.56;5024843;28;20209;-62
2022/12/29 12:05:23;;;;;;;3.97;1.73;;;;;;;11.95;100.00;99370.75;5015432;28;20175;-62
2022/12/29 12:08:13;;;;;;;4.47;1.67;;;;;;;12.12;100.00;99364.41;5011619;28;20187;-62
2022/12/29 12:10:48;;;;;;;3.60;1.73;;;;;;;12.25;100.00;99374.63;5002665;28;20313;-63
2022/12/29 12:13:26;;;;;;;3.03;1.30;;;;;;;12.12;100.00;99364.41;5015707;28;20178;-63
2022/12/29 12:15:59;;;;;;;3.77;1.63;;;;;;;12.01;100.00;99372.91;5001090;28;20320;-55